createdAt,value
2023-06-01T00:00:57.161Z,47.13
2023-06-01T00:03:24.352Z,47.20
2023-06-01T00:05:51.166Z,47.34
2023-06-01T00:08:17.783Z,47.18
2023-06-01T00:10:44.356Z,47.49
2023-06-01T00:13:11.033Z,47.43
2023-06-01T00:15:37.682Z,47.54
2023-06-01T00:18:04.340Z,47.16
2023-06-01T00:20:33.189Z,47.21
2023-06-01T00:23:03.633Z,47.52
2023-06-01T00:25:30.442Z,47.44
2023-06-01T00:27:57.353Z,47.51
2023-06-01T00:30:24.104Z,47.39
2023-06-01T00:32:51.098Z,47.23
2023-06-01T00:35:17.901Z,47.10
2023-06-01T00:37:44.534Z,47.27
2023-06-01T00:40:11.661Z,47.29
2023-06-01T00:42:38.273Z,47.07
2023-06-01T00:45:06.297Z,47.32
2023-06-01T00:47:41.579Z,47.44
2023-06-01T00:50:09.757Z,47.49
2023-06-01T00:52:38.581Z,47.38
2023-06-01T00:55:06.629Z,47.47
2023-06-01T00:57:35.671Z,47.39
2023-06-01T01:00:11.939Z,47.13
2023-06-01T01:02:45.584Z,47.57
2023-06-01T01:05:12.525Z,47.24
2023-06-01T01:07:45.139Z,47.75
2023-06-01T01:10:27.702Z,47.20
2023-06-01T01:13:07.910Z,47.35
2023-06-01T01:15:54.682Z,47.76
2023-06-01T01:18:33.644Z,47.34
2023-06-01T01:21:04.458Z,47.37
2023-06-01T01:23:55.786Z,47.09
2023-06-01T01:26:44.378Z,47.39
2023-06-01T01:29:15.136Z,47.11
2023-06-01T01:31:42.492Z,47.62
2023-06-01T01:34:10.188Z,47.19
2023-06-01T01:36:37.399Z,47.22
2023-06-01T01:39:04.413Z,47.69
2023-06-01T01:41:30.986Z,47.11
2023-06-01T01:44:00.300Z,47.17
2023-06-01T01:46:29.605Z,47.23
2023-06-01T01:49:08.205Z,47.40
2023-06-01T01:51:46.101Z,47.44
2023-06-01T01:54:14.175Z,47.56
2023-06-01T01:56:41.314Z,47.36
2023-06-01T01:59:08.464Z,47.53
2023-06-01T02:01:36.134Z,47.09
2023-06-01T02:04:04.991Z,46.99
2023-06-01T02:06:31.811Z,47.51
2023-06-01T02:08:58.575Z,47.04
2023-06-01T02:11:25.979Z,47.02
2023-06-01T02:13:52.792Z,47.62
2023-06-01T02:16:19.451Z,47.25
2023-06-01T02:18:46.988Z,47.59
2023-06-01T02:21:14.658Z,47.72
2023-06-01T02:23:43.150Z,47.50
2023-06-01T02:26:10.703Z,47.28
2023-06-01T02:28:41.799Z,47.13
2023-06-01T02:31:08.426Z,47.56
2023-06-01T02:33:35.103Z,47.27
2023-06-01T02:36:02.626Z,47.56
2023-06-01T02:38:29.168Z,47.37
2023-06-01T02:40:55.897Z,47.88
2023-06-01T02:43:22.444Z,47.56
2023-06-01T02:45:49.161Z,47.42
2023-06-01T02:48:15.786Z,47.80
2023-06-01T02:50:42.391Z,47.28
2023-06-01T02:53:09.014Z,47.46
2023-06-01T02:55:35.739Z,47.18
2023-06-01T02:58:02.323Z,47.33
2023-06-01T03:00:29.113Z,47.22
2023-06-01T03:02:55.763Z,47.21
2023-06-01T03:05:22.414Z,47.66
2023-06-01T03:07:49.340Z,47.15
2023-06-01T03:10:16.340Z,47.15
2023-06-01T03:12:42.983Z,47.58
2023-06-01T03:15:09.949Z,47.81
2023-06-01T03:17:36.747Z,47.69
2023-06-01T03:20:03.993Z,47.43
2023-06-01T03:22:30.789Z,47.47
2023-06-01T03:24:58.848Z,47.71
2023-06-01T03:27:25.427Z,47.38
2023-06-01T03:29:52.012Z,47.83
2023-06-01T03:32:18.604Z,47.51
2023-06-01T03:34:46.003Z,47.45
2023-06-01T03:37:13.230Z,47.49
2023-06-01T03:39:40.352Z,47.47
2023-06-01T03:42:08.379Z,47.10
2023-06-01T03:44:35.068Z,47.38
2023-06-01T03:47:02.022Z,47.03
2023-06-01T03:49:28.649Z,46.80
2023-06-01T03:51:55.394Z,46.68
2023-06-01T03:54:22.121Z,46.43
2023-06-01T03:56:48.842Z,46.72
2023-06-01T03:59:16.109Z,46.54
2023-06-01T04:01:44.248Z,46.44
2023-06-01T04:04:11.059Z,46.33
2023-06-01T04:06:37.909Z,46.66
2023-06-01T04:09:10.418Z,46.33
2023-06-01T04:11:37.102Z,46.53
2023-06-01T04:14:03.665Z,46.12
2023-06-01T04:16:30.332Z,46.28
2023-06-01T04:18:57.026Z,46.20
2023-06-01T04:21:24.443Z,46.50
2023-06-01T04:23:51.660Z,46.34
2023-06-01T04:26:19.233Z,46.31
2023-06-01T04:28:46.992Z,45.97
2023-06-01T04:31:20.806Z,46.38
2023-06-01T04:33:53.285Z,46.10
2023-06-01T04:36:26.523Z,46.17
2023-06-01T04:38:55.309Z,46.00
2023-06-01T04:41:23.048Z,46.28
2023-06-01T04:43:54.097Z,45.86
2023-06-01T04:46:24.326Z,46.11
2023-06-01T04:48:54.550Z,46.06
2023-06-01T04:51:21.818Z,46.26
2023-06-01T04:53:53.122Z,45.97
2023-06-01T04:56:20.735Z,45.93
2023-06-01T04:58:48.364Z,46.08
2023-06-01T05:01:16.624Z,45.90
2023-06-01T05:03:45.013Z,45.85
2023-06-01T05:06:12.997Z,46.13
2023-06-01T05:08:43.230Z,45.92
2023-06-01T05:11:10.847Z,46.04
2023-06-01T05:13:41.996Z,45.47
2023-06-01T05:16:09.735Z,45.73
2023-06-01T05:18:36.738Z,45.95
2023-06-01T05:21:03.741Z,45.87
2023-06-01T05:23:31.022Z,45.87
2023-06-01T05:26:03.338Z,45.69
2023-06-01T05:28:33.757Z,45.73
2023-06-01T05:31:02.362Z,45.90
2023-06-01T05:33:29.109Z,45.74
2023-06-01T05:35:55.875Z,45.75
2023-06-01T05:38:22.461Z,45.85
2023-06-01T05:40:49.186Z,45.53
2023-06-01T05:43:16.905Z,45.69
2023-06-01T05:45:43.693Z,45.93
2023-06-01T05:48:10.414Z,45.53
2023-06-01T05:50:37.028Z,45.75
2023-06-01T05:53:03.690Z,45.53
2023-06-01T05:55:30.218Z,45.45
2023-06-01T05:57:56.765Z,45.71
2023-06-01T06:00:23.424Z,45.60
2023-06-01T06:02:50.380Z,45.66
2023-06-01T06:05:17.225Z,45.64
2023-06-01T06:07:43.870Z,45.68
2023-06-01T06:10:10.898Z,45.82
2023-06-01T06:12:37.555Z,45.79
2023-06-01T06:15:05.277Z,45.53
2023-06-01T06:17:31.894Z,45.83
2023-06-01T06:19:58.629Z,45.48
2023-06-01T06:22:25.204Z,45.66
2023-06-01T06:24:51.890Z,45.59
2023-06-01T06:27:18.476Z,45.91
2023-06-01T06:29:45.133Z,45.62
2023-06-01T06:32:11.841Z,45.76
2023-06-01T06:34:38.409Z,46.10
2023-06-01T06:37:07.865Z,46.08
2023-06-01T06:39:35.161Z,45.79
2023-06-01T06:42:04.911Z,45.77
2023-06-01T06:44:31.716Z,46.24
2023-06-01T06:47:02.354Z,46.11
2023-06-01T06:49:29.670Z,46.20
2023-06-01T06:51:56.965Z,46.33
2023-06-01T06:54:23.885Z,46.18
2023-06-01T06:56:50.731Z,46.20
2023-06-01T06:59:18.122Z,46.24
2023-06-01T07:01:44.789Z,46.07
2023-06-01T07:04:11.529Z,46.02
2023-06-01T07:06:38.520Z,46.11
2023-06-01T07:09:06.850Z,46.19
2023-06-01T07:11:33.525Z,46.25
2023-06-01T07:14:00.354Z,46.19
2023-06-01T07:16:27.939Z,46.14
2023-06-01T07:18:54.590Z,46.21
2023-06-01T07:21:21.209Z,46.12
2023-06-01T07:23:48.046Z,46.02
2023-06-01T07:26:14.645Z,46.12
2023-06-01T07:28:43.596Z,45.89
2023-06-01T07:31:10.487Z,45.87
2023-06-01T07:33:37.462Z,45.77
2023-06-01T07:36:05.492Z,45.73
2023-06-01T07:38:32.362Z,45.78
2023-06-01T07:40:59.077Z,45.57
2023-06-01T07:43:25.852Z,46.06
2023-06-01T07:45:52.449Z,45.96
2023-06-01T07:48:19.035Z,45.92
2023-06-01T07:50:45.682Z,45.96
2023-06-01T07:53:13.283Z,45.67
2023-06-01T07:55:40.022Z,45.90
2023-06-01T07:58:06.930Z,45.51
2023-06-01T08:00:33.520Z,45.80
2023-06-01T08:03:00.448Z,45.81
2023-06-01T08:05:27.235Z,45.67
2023-06-01T08:07:54.160Z,45.65
2023-06-01T08:10:20.749Z,45.38
2023-06-01T08:12:49.087Z,45.75
2023-06-01T08:15:17.078Z,45.62
2023-06-01T08:17:44.441Z,45.44
2023-06-01T08:20:12.328Z,45.41
2023-06-01T08:22:39.276Z,45.14
2023-06-01T08:25:06.800Z,45.33
2023-06-01T08:27:33.489Z,45.23
2023-06-01T08:30:00.084Z,45.42
2023-06-01T08:32:26.803Z,45.43
2023-06-01T08:34:53.430Z,45.29
2023-06-01T08:37:20.016Z,45.24
2023-06-01T08:39:47.379Z,45.17
2023-06-01T08:42:26.715Z,44.89
2023-06-01T08:44:59.351Z,45.07
2023-06-01T08:47:27.539Z,45.08
2023-06-01T08:49:54.562Z,44.94
2023-06-01T08:52:25.783Z,45.28
2023-06-01T08:54:53.584Z,45.15
2023-06-01T08:57:21.603Z,44.92
2023-06-01T08:59:48.263Z,44.73
2023-06-01T09:02:15.821Z,44.66
2023-06-01T09:04:45.652Z,44.93
2023-06-01T09:07:14.057Z,44.93
2023-06-01T09:09:41.064Z,44.38
2023-06-01T09:12:25.518Z,44.90
2023-06-01T09:15:12.926Z,44.99
2023-06-01T09:17:44.353Z,44.87
2023-06-01T09:20:15.482Z,44.97
2023-06-01T09:22:46.532Z,44.75
2023-06-01T09:25:14.974Z,44.78
2023-06-01T09:27:52.361Z,45.06
2023-06-01T09:30:24.849Z,44.81
2023-06-01T09:32:53.917Z,44.86
2023-06-01T09:35:46.718Z,44.86
2023-06-01T09:38:22.202Z,44.76
2023-06-01T09:41:04.830Z,44.68
2023-06-01T09:43:37.658Z,44.83
2023-06-01T09:46:04.996Z,44.75
2023-06-01T09:48:31.840Z,44.94
2023-06-01T09:50:59.732Z,44.93
2023-06-01T09:53:28.300Z,44.99
2023-06-01T09:56:02.080Z,45.22
2023-06-01T09:58:29.162Z,45.27
2023-06-01T10:00:59.517Z,45.12
2023-06-01T10:03:27.191Z,44.91
2023-06-01T10:05:54.775Z,45.28
2023-06-01T10:08:21.662Z,45.51
2023-06-01T10:10:49.999Z,45.49
2023-06-01T10:13:16.922Z,45.53
2023-06-01T10:15:43.595Z,45.31
2023-06-01T10:18:10.686Z,45.53
2023-06-01T10:20:39.236Z,45.63
2023-06-01T10:23:09.247Z,45.20
2023-06-01T10:25:47.055Z,45.66
2023-06-01T10:28:14.609Z,45.81
2023-06-01T10:30:41.403Z,45.37
2023-06-01T10:33:08.233Z,45.70
2023-06-01T10:35:43.928Z,45.98
2023-06-01T10:38:10.968Z,45.86
2023-06-01T10:40:38.586Z,46.06
2023-06-01T10:43:05.374Z,46.26
2023-06-01T10:45:34.645Z,45.99
2023-06-01T10:48:02.621Z,46.04
2023-06-01T10:50:29.264Z,46.50
2023-06-01T10:52:56.976Z,46.43
2023-06-01T10:55:28.038Z,46.43
2023-06-01T10:58:25.191Z,46.11
2023-06-01T11:00:56.529Z,46.25
2023-06-01T11:03:46.558Z,46.18
2023-06-01T11:06:27.452Z,46.23
2023-06-01T11:09:01.003Z,46.11
2023-06-01T11:11:49.864Z,46.41
2023-06-01T11:14:17.239Z,46.28
2023-06-01T11:16:44.106Z,46.01
2023-06-01T11:19:11.858Z,45.90
2023-06-01T11:21:44.477Z,46.12
2023-06-01T11:24:12.430Z,45.83
2023-06-01T11:26:47.154Z,45.98
2023-06-01T11:29:24.499Z,46.46
2023-06-01T11:31:54.929Z,45.93
2023-06-01T11:34:35.124Z,45.77
2023-06-01T11:37:03.175Z,46.14
2023-06-01T11:39:30.776Z,45.88
2023-06-01T11:42:11.705Z,46.13
2023-06-01T11:44:41.027Z,45.91
2023-06-01T11:47:09.287Z,45.65
2023-06-01T11:49:50.569Z,45.95
2023-06-01T11:52:19.029Z,45.95
2023-06-01T11:54:46.545Z,46.07
2023-06-01T11:57:13.458Z,45.83
2023-06-01T11:59:50.731Z,45.62
2023-06-01T12:02:25.872Z,45.91
2023-06-01T12:05:07.955Z,45.76
2023-06-01T12:07:55.213Z,46.08
2023-06-01T12:10:22.777Z,46.00
2023-06-01T12:12:49.708Z,45.95
2023-06-01T12:15:17.561Z,46.11
2023-06-01T12:17:48.459Z,45.82
2023-06-01T12:20:29.124Z,46.11
2023-06-01T12:22:56.561Z,46.13
2023-06-01T12:25:26.607Z,45.84
2023-06-01T12:28:06.733Z,45.86
2023-06-01T12:30:34.198Z,45.89
2023-06-01T12:33:01.479Z,45.75
2023-06-01T12:35:28.155Z,46.21
2023-06-01T12:38:12.818Z,45.63
2023-06-01T12:40:40.162Z,46.23
2023-06-01T12:43:18.999Z,46.11
2023-06-01T12:45:46.086Z,45.74
2023-06-01T12:48:35.583Z,45.84
2023-06-01T12:51:02.935Z,46.20
2023-06-01T12:53:30.653Z,46.15
2023-06-01T12:55:57.641Z,46.00
2023-06-01T12:58:24.320Z,46.32
2023-06-01T13:00:57.226Z,46.04
2023-06-01T13:03:25.354Z,45.80
2023-06-01T13:05:52.828Z,46.43
2023-06-01T13:08:20.128Z,46.16
2023-06-01T13:10:47.626Z,46.28
2023-06-01T13:13:14.271Z,46.34
2023-06-01T13:15:41.725Z,46.23
2023-06-01T13:18:08.545Z,46.23
2023-06-01T13:20:36.317Z,46.20
2023-06-01T13:23:05.050Z,45.82
2023-06-01T13:25:31.916Z,46.04
2023-06-01T13:27:58.985Z,45.77
2023-06-01T13:30:25.593Z,46.05
2023-06-01T13:32:52.274Z,45.99
2023-06-01T13:35:19.969Z,46.39
2023-06-01T13:37:46.540Z,46.04
2023-06-01T13:40:13.674Z,45.97
2023-06-01T13:42:40.294Z,46.51
2023-06-01T13:45:07.519Z,46.00
2023-06-01T13:47:34.108Z,46.18
2023-06-01T13:50:00.724Z,45.86
2023-06-01T13:52:27.982Z,46.07
2023-06-01T13:54:54.584Z,46.22
2023-06-01T13:57:21.139Z,46.59
2023-06-01T13:59:47.747Z,46.08
2023-06-01T14:02:14.702Z,46.24
2023-06-01T14:04:41.404Z,45.84
2023-06-01T14:07:07.978Z,46.27
2023-06-01T14:09:34.567Z,46.44
2023-06-01T14:12:01.207Z,45.45
2023-06-01T14:14:27.819Z,45.83
2023-06-01T14:16:54.366Z,46.04
2023-06-01T14:19:21.036Z,45.72
2023-06-01T14:21:47.645Z,45.65
2023-06-01T14:24:14.301Z,45.53
2023-06-01T14:26:41.086Z,45.78
2023-06-01T14:29:07.654Z,45.68
2023-06-01T14:31:34.250Z,45.90
2023-06-01T14:34:00.855Z,45.81
2023-06-01T14:36:45.058Z,46.02
2023-06-01T14:39:13.108Z,45.96
2023-06-01T14:41:43.491Z,46.30
2023-06-01T14:44:11.569Z,45.62
2023-06-01T14:46:38.417Z,45.83
2023-06-01T14:49:05.275Z,45.63
2023-06-01T14:51:34.221Z,46.05
2023-06-01T14:54:01.128Z,46.02
2023-06-01T14:56:28.182Z,45.94
2023-06-01T14:58:54.987Z,45.82
2023-06-01T15:01:21.791Z,46.00
2023-06-01T15:03:48.709Z,46.40
2023-06-01T15:06:15.612Z,45.86
2023-06-01T15:08:42.237Z,45.87
2023-06-01T15:11:08.886Z,45.94
2023-06-01T15:13:35.747Z,46.13
2023-06-01T15:16:02.427Z,46.07
2023-06-01T15:18:28.965Z,45.79
2023-06-01T15:20:55.862Z,45.76
2023-06-01T15:23:22.434Z,46.04
2023-06-01T15:25:49.022Z,45.91
2023-06-01T15:28:15.610Z,46.03
2023-06-01T15:30:42.179Z,45.94
2023-06-01T15:34:13.121Z,46.18
2023-06-01T15:35:55.268Z,45.77
2023-06-01T15:38:21.874Z,46.04
2023-06-01T15:40:48.764Z,45.72
2023-06-01T15:43:15.508Z,45.94
2023-06-01T15:45:42.095Z,46.05
2023-06-01T15:48:08.757Z,45.78
2023-06-01T15:50:40.053Z,45.72
2023-06-01T15:53:07.218Z,45.91
2023-06-01T15:55:33.803Z,46.07
2023-06-01T15:58:00.473Z,46.08
2023-06-01T16:00:28.831Z,45.68
2023-06-01T16:02:55.544Z,46.14
2023-06-01T16:05:22.268Z,45.95
2023-06-01T16:07:48.864Z,45.56
2023-06-01T16:10:16.128Z,45.46
2023-06-01T16:12:42.761Z,45.59
2023-06-01T16:15:09.621Z,45.64
2023-06-01T16:17:36.316Z,45.98
2023-06-01T16:20:03.342Z,45.77
2023-06-01T16:22:29.919Z,46.15
2023-06-01T16:24:56.499Z,45.68
2023-06-01T16:27:23.072Z,46.00
2023-06-01T16:29:49.728Z,46.08
2023-06-01T16:32:16.380Z,45.84
2023-06-01T16:34:42.972Z,45.69
2023-06-01T16:37:09.530Z,45.92
2023-06-01T16:39:36.259Z,45.76
2023-06-01T16:42:02.932Z,46.03
2023-06-01T16:44:29.490Z,46.03
2023-06-01T16:46:56.073Z,45.67
2023-06-01T16:49:22.680Z,46.41
2023-06-01T16:51:49.902Z,46.09
2023-06-01T16:54:16.539Z,46.06
2023-06-01T16:56:43.084Z,45.76
2023-06-01T16:59:09.678Z,46.07
2023-06-01T17:01:36.944Z,46.23
2023-06-01T17:04:03.713Z,46.13
2023-06-01T17:06:32.031Z,46.03
2023-06-01T17:08:59.209Z,46.22
2023-06-01T17:11:28.380Z,46.55
2023-06-01T17:13:55.081Z,46.45
2023-06-01T17:16:21.772Z,46.40
2023-06-01T17:18:48.538Z,46.20
2023-06-01T17:21:15.786Z,46.86
2023-06-01T17:23:43.552Z,46.37
2023-06-01T17:26:10.165Z,46.49
2023-06-01T17:28:37.659Z,46.53
2023-06-01T17:31:04.552Z,46.35
2023-06-01T17:33:31.466Z,47.13
2023-06-01T17:35:58.131Z,46.58
2023-06-01T17:38:25.536Z,46.20
2023-06-01T17:40:52.617Z,46.63
2023-06-01T17:43:19.175Z,46.35
2023-06-01T17:45:45.981Z,46.52
2023-06-01T17:48:12.728Z,46.75
2023-06-01T17:50:39.514Z,46.73
2023-06-01T17:53:08.138Z,46.78
2023-06-01T17:55:37.402Z,46.71
2023-06-01T17:58:04.015Z,46.75
2023-06-01T18:00:32.646Z,46.62
2023-06-01T18:02:59.272Z,46.68
2023-06-01T18:05:25.912Z,46.56
2023-06-01T18:07:52.508Z,46.80
2023-06-01T18:10:19.477Z,46.75
2023-06-01T18:12:46.250Z,46.92
2023-06-01T18:15:12.968Z,47.00
2023-06-01T18:17:39.658Z,46.88
2023-06-01T18:20:06.757Z,46.88
2023-06-01T18:22:33.388Z,46.50
2023-06-01T18:24:59.992Z,46.83
2023-06-01T18:27:26.799Z,46.88
2023-06-01T18:29:53.627Z,46.43
2023-06-01T18:32:20.220Z,46.74
2023-06-01T18:34:46.772Z,46.40
2023-06-01T18:37:13.380Z,46.62
2023-06-01T18:39:39.992Z,46.48
2023-06-01T18:42:06.899Z,46.44
2023-06-01T18:44:33.530Z,46.49
2023-06-01T18:47:00.280Z,46.39
2023-06-01T18:49:27.022Z,46.25
2023-06-01T18:51:56.404Z,46.31
2023-06-01T18:54:23.118Z,46.09
2023-06-01T18:56:49.780Z,45.80
2023-06-01T18:59:16.585Z,45.88
2023-06-01T19:01:43.474Z,46.24
2023-06-01T19:04:10.132Z,46.17
2023-06-01T19:06:37.480Z,45.95
2023-06-01T19:09:04.285Z,46.09
2023-06-01T19:11:31.245Z,45.85
2023-06-01T19:13:57.836Z,46.15
2023-06-01T19:16:31.617Z,45.99
2023-06-01T19:19:01.000Z,46.07
2023-06-01T19:21:31.791Z,46.07
2023-06-01T19:23:59.449Z,45.64
2023-06-01T19:26:29.531Z,45.80
2023-06-01T19:29:01.676Z,45.54
2023-06-01T19:31:35.544Z,45.90
2023-06-01T19:34:04.192Z,45.44
2023-06-01T19:36:42.588Z,45.66
2023-06-01T19:39:36.331Z,45.53
2023-06-01T19:42:09.493Z,45.79
2023-06-01T19:44:36.638Z,45.71
2023-06-01T19:47:04.639Z,45.33
2023-06-01T19:49:41.751Z,45.21
2023-06-01T19:52:10.936Z,45.16
2023-06-01T19:54:39.892Z,45.16
2023-06-01T19:57:07.496Z,44.91
2023-06-01T19:59:34.658Z,44.85
2023-06-01T20:02:02.943Z,44.88
2023-06-01T20:04:34.018Z,44.94
2023-06-01T20:07:01.293Z,44.92
2023-06-01T20:09:27.997Z,44.93
2023-06-01T20:11:58.547Z,45.10
2023-06-01T20:14:33.429Z,44.59
2023-06-01T20:17:03.053Z,44.76
2023-06-01T20:19:30.416Z,45.02
2023-06-01T20:21:59.410Z,44.95
2023-06-01T20:24:30.970Z,45.07
2023-06-01T20:27:05.272Z,44.99
2023-06-01T20:29:33.951Z,45.04
2023-06-01T20:32:02.106Z,44.77
2023-06-01T20:34:31.429Z,45.04
2023-06-01T20:36:58.301Z,44.55
2023-06-01T20:39:25.343Z,45.15
2023-06-01T20:41:56.058Z,45.08
2023-06-01T20:44:23.710Z,45.29
2023-06-01T20:46:52.277Z,45.26
2023-06-01T20:49:24.858Z,45.10
2023-06-01T20:51:51.543Z,45.10
2023-06-01T20:54:22.931Z,45.36
2023-06-01T20:56:54.143Z,45.11
2023-06-01T20:59:28.641Z,45.03
2023-06-01T21:02:00.962Z,45.19
2023-06-01T21:04:30.263Z,45.20
2023-06-01T21:06:57.116Z,45.27
2023-06-01T21:09:24.287Z,45.63
2023-06-01T21:11:53.224Z,45.48
2023-06-01T21:14:20.509Z,45.44
2023-06-01T21:16:47.952Z,45.73
2023-06-01T21:19:14.723Z,45.52
2023-06-01T21:21:41.441Z,45.43
2023-06-01T21:24:08.952Z,45.58
2023-06-01T21:26:36.823Z,45.52
2023-06-01T21:29:04.111Z,45.77
2023-06-01T21:31:30.848Z,45.75
2023-06-01T21:33:57.526Z,45.64
2023-06-01T21:36:24.131Z,45.94
2023-06-01T21:38:50.864Z,45.95
2023-06-01T21:41:18.443Z,45.74
2023-06-01T21:43:45.108Z,46.05
2023-06-01T21:46:11.729Z,45.84
2023-06-01T21:48:38.395Z,46.10
2023-06-01T21:51:05.208Z,45.95
2023-06-01T21:53:31.862Z,46.03
2023-06-01T21:55:59.395Z,46.33
2023-06-01T21:58:26.741Z,46.10
2023-06-01T22:00:54.151Z,46.35
2023-06-01T22:03:22.474Z,46.18
2023-06-01T22:05:50.211Z,46.24
2023-06-01T22:08:17.293Z,46.34
2023-06-01T22:10:44.058Z,46.53
2023-06-01T22:13:10.793Z,46.48
2023-06-01T22:15:37.497Z,46.08
2023-06-01T22:18:06.289Z,46.19
2023-06-01T22:20:32.995Z,46.39
2023-06-01T22:22:59.585Z,46.10
2023-06-01T22:25:26.166Z,46.39
2023-06-01T22:27:52.787Z,46.27
2023-06-01T22:30:19.543Z,46.50
2023-06-01T22:32:46.237Z,46.50
2023-06-01T22:35:12.988Z,46.15
2023-06-01T22:37:39.592Z,46.53
2023-06-01T22:40:07.109Z,46.47
2023-06-01T22:42:34.918Z,46.62
2023-06-01T22:45:02.324Z,46.49
2023-06-01T22:47:29.085Z,46.65
2023-06-01T22:49:57.793Z,46.18
2023-06-01T22:52:28.555Z,46.24
2023-06-01T22:54:56.255Z,46.36
2023-06-01T22:57:23.491Z,46.41
2023-06-01T22:59:50.517Z,46.44
2023-06-01T23:02:19.764Z,46.48
2023-06-01T23:04:46.484Z,46.57
2023-06-01T23:07:14.398Z,46.17
2023-06-01T23:09:42.233Z,46.58
2023-06-01T23:12:12.781Z,46.72
2023-06-01T23:14:41.991Z,47.01
2023-06-01T23:17:12.432Z,46.58
2023-06-01T23:19:41.890Z,46.36
2023-06-01T23:22:09.637Z,46.52
2023-06-01T23:24:36.320Z,46.43
2023-06-01T23:27:03.135Z,46.17
2023-06-01T23:29:30.039Z,46.83
2023-06-01T23:31:56.875Z,46.43
2023-06-01T23:34:24.034Z,46.67
2023-06-01T23:36:54.168Z,46.81
2023-06-01T23:39:22.436Z,46.67
2023-06-01T23:41:49.755Z,46.46
2023-06-01T23:44:17.565Z,46.63
2023-06-01T23:46:46.133Z,46.52
2023-06-01T23:49:13.920Z,46.17
2023-06-01T23:51:41.168Z,46.28
2023-06-01T23:54:07.925Z,45.96
2023-06-01T23:56:34.683Z,46.09
2023-06-01T23:59:01.633Z,45.91
